sensor_id;sensor_type;location;lat;lon;timestamp;pressure;altitude;pressure_sealevel;temperature;humidity
75991;BME280;64673;52.276;10.560;2023-12-20T00:01:16;100230.16;;;5.96;100.00
75991;BME280;64673;52.276;10.560;2023-12-20T00:03:41;100230.09;;;5.91;100.00
75991;BME280;64673;52.276;10.560;2023-12-20T00:06:06;100216.03;;;5.83;100.00
75991;BME280;64673;52.276;10.560;2023-12-20T00:08:32;100228.94;;;5.86;100.00
75991;BME280;64673;52.276;10.560;2023-12-20T00:10:57;100212.06;;;5.86;100.00
75991;BME280;64673;52.276;10.560;2023-12-20T00:13:22;100221.03;;;5.92;100.00
75991;BME280;64673;52.276;10.560;2023-12-20T00:15:48;100225.38;;;5.98;100.00
75991;BME280;64673;52.276;10.560;2023-12-20T00:18:13;100222.66;;;5.93;100.00
75991;BME280;64673;52.276;10.560;2023-12-20T00:20:38;100224.50;;;5.92;100.00
75991;BME280;64673;52.276;10.560;2023-12-20T00:23:04;100213.47;;;5.88;100.00
75991;BME280;64673;52.276;10.560;2023-12-20T00:25:29;100225.69;;;6.01;100.00
75991;BME280;64673;52.276;10.560;2023-12-20T00:27:54;100219.44;;;5.96;100.00
75991;BME280;64673;52.276;10.560;2023-12-20T00:30:20;100229.91;;;5.97;100.00
75991;BME280;64673;52.276;10.560;2023-12-20T00:32:45;100238.84;;;6.03;100.00
75991;BME280;64673;52.276;10.560;2023-12-20T00:35:14;100233.97;;;6.00;100.00
75991;BME280;64673;52.276;10.560;2023-12-20T00:37:39;100241.44;;;5.98;100.00
75991;BME280;64673;52.276;10.560;2023-12-20T00:40:05;100238.84;;;6.03;100.00
75991;BME280;64673;52.276;10.560;2023-12-20T00:42:31;100226.31;;;6.08;100.00
75991;BME280;64673;52.276;10.560;2023-12-20T00:44:58;100239.47;;;6.10;100.00
75991;BME280;64673;52.276;10.560;2023-12-20T00:47:23;100241.69;;;6.18;100.00
75991;BME280;64673;52.276;10.560;2023-12-20T00:49:48;100233.78;;;6.28;100.00
75991;BME280;64673;52.276;10.560;2023-12-20T00:52:14;100230.63;;;6.31;100.00
75991;BME280;64673;52.276;10.560;2023-12-20T00:54:39;100219.78;;;6.21;100.00
75991;BME280;64673;52.276;10.560;2023-12-20T00:57:04;100240.84;;;6.34;100.00
75991;BME280;64673;52.276;10.560;2023-12-20T00:59:30;100239.03;;;6.40;100.00
75991;BME280;64673;52.276;10.560;2023-12-20T01:01:55;100243.66;;;6.44;100.00
75991;BME280;64673;52.276;10.560;2023-12-20T01:04:20;100254.28;;;6.39;100.00
75991;BME280;64673;52.276;10.560;2023-12-20T01:06:46;100251.84;;;6.38;100.00
75991;BME280;64673;52.276;10.560;2023-12-20T01:09:12;100248.69;;;6.41;100.00
75991;BME280;64673;52.276;10.560;2023-12-20T01:11:37;100245.19;;;6.40;100.00
75991;BME280;64673;52.276;10.560;2023-12-20T01:14:02;100244.97;;;6.42;100.00
75991;BME280;64673;52.276;10.560;2023-12-20T01:16:28;100252.19;;;6.41;100.00
75991;BME280;64673;52.276;10.560;2023-12-20T01:18:53;100248.06;;;6.34;100.00
75991;BME280;64673;52.276;10.560;2023-12-20T01:21:18;100225.97;;;6.21;100.00
75991;BME280;64673;52.276;10.560;2023-12-20T01:23:44;100235.06;;;6.20;100.00
75991;BME280;64673;52.276;10.560;2023-12-20T01:26:09;100234.72;;;6.17;100.00
75991;BME280;64673;52.276;10.560;2023-12-20T01:28:34;100246.94;;;6.08;100.00
75991;BME280;64673;52.276;10.560;2023-12-20T01:31:00;100254.53;;;6.16;100.00
75991;BME280;64673;52.276;10.560;2023-12-20T01:33:25;100246.34;;;6.06;100.00
75991;BME280;64673;52.276;10.560;2023-12-20T01:35:50;100254.34;;;6.01;100.00
75991;BME280;64673;52.276;10.560;2023-12-20T01:38:16;100250.03;;;6.00;100.00
75991;BME280;64673;52.276;10.560;2023-12-20T01:40:44;100245.00;;;5.86;100.00
75991;BME280;64673;52.276;10.560;2023-12-20T01:43:09;100247.91;;;5.85;100.00
75991;BME280;64673;52.276;10.560;2023-12-20T01:45:35;100249.72;;;5.79;100.00
75991;BME280;64673;52.276;10.560;2023-12-20T01:48:01;100250.19;;;5.76;100.00
75991;BME280;64673;52.276;10.560;2023-12-20T01:50:28;100244.84;;;5.76;100.00
75991;BME280;64673;52.276;10.560;2023-12-20T01:52:55;100261.72;;;5.77;100.00
75991;BME280;64673;52.276;10.560;2023-12-20T01:55:23;100253.44;;;5.62;100.00
75991;BME280;64673;52.276;10.560;2023-12-20T01:57:50;100250.53;;;5.63;100.00
75991;BME280;64673;52.276;10.560;2023-12-20T02:00:16;100258.16;;;5.71;100.00
75991;BME280;64673;52.276;10.560;2023-12-20T02:02:43;100258.31;;;5.65;100.00
75991;BME280;64673;52.276;10.560;2023-12-20T02:05:09;100253.78;;;5.65;100.00
75991;BME280;64673;52.276;10.560;2023-12-20T02:07:35;100256.38;;;5.60;100.00
75991;BME280;64673;52.276;10.560;2023-12-20T02:10:01;100264.31;;;5.55;100.00
75991;BME280;64673;52.276;10.560;2023-12-20T02:12:27;100264.31;;;5.55;100.00
75991;BME280;64673;52.276;10.560;2023-12-20T02:14:52;100257.19;;;5.61;100.00
75991;BME280;64673;52.276;10.560;2023-12-20T02:17:19;100256.06;;;5.57;100.00
75991;BME280;64673;52.276;10.560;2023-12-20T02:19:44;100266.28;;;5.60;100.00
75991;BME280;64673;52.276;10.560;2023-12-20T02:22:10;100263.03;;;5.58;100.00
75991;BME280;64673;52.276;10.560;2023-12-20T02:24:36;100253.38;;;5.57;100.00
75991;BME280;64673;52.276;10.560;2023-12-20T02:27:01;100267.00;;;5.55;100.00
75991;BME280;64673;52.276;10.560;2023-12-20T02:29:27;100273.41;;;5.54;100.00
75991;BME280;64673;52.276;10.560;2023-12-20T02:31:52;100275.03;;;5.55;100.00
75991;BME280;64673;52.276;10.560;2023-12-20T02:34:18;100271.47;;;5.49;100.00
75991;BME280;64673;52.276;10.560;2023-12-20T02:36:43;100276.97;;;5.43;100.00
75991;BME280;64673;52.276;10.560;2023-12-20T02:39:08;100264.16;;;5.45;100.00
75991;BME280;64673;52.276;10.560;2023-12-20T02:41:34;100273.22;;;5.44;100.00
75991;BME280;64673;52.276;10.560;2023-12-20T02:44:01;100254.91;;;5.36;100.00
75991;BME280;64673;52.276;10.560;2023-12-20T02:46:27;100253.41;;;5.40;100.00
75991;BME280;64673;52.276;10.560;2023-12-20T02:48:52;100239.53;;;5.26;100.00
75991;BME280;64673;52.276;10.560;2023-12-20T02:51:17;100240.16;;;5.17;100.00
75991;BME280;64673;52.276;10.560;2023-12-20T02:53:43;100244.94;;;5.14;100.00
75991;BME280;64673;52.276;10.560;2023-12-20T02:56:08;100247.28;;;5.11;100.00
75991;BME280;64673;52.276;10.560;2023-12-20T02:58:33;100252.31;;;5.07;100.00
75991;BME280;64673;52.276;10.560;2023-12-20T03:00:58;100251.81;;;5.10;100.00
75991;BME280;64673;52.276;10.560;2023-12-20T03:03:24;100250.09;;;5.04;100.00
75991;BME280;64673;52.276;10.560;2023-12-20T03:05:50;100246.28;;;5.00;100.00
75991;BME280;64673;52.276;10.560;2023-12-20T03:08:15;100243.03;;;4.98;100.00
75991;BME280;64673;52.276;10.560;2023-12-20T03:10:41;100235.53;;;4.95;100.00
75991;BME280;64673;52.276;10.560;2023-12-20T03:13:06;100225.31;;;4.92;100.00
75991;BME280;64673;52.276;10.560;2023-12-20T03:15:31;100234.13;;;4.93;100.00
75991;BME280;64673;52.276;10.560;2023-12-20T03:17:56;100238.00;;;4.85;100.00
75991;BME280;64673;52.276;10.560;2023-12-20T03:20:24;100238.47;;;4.82;100.00
75991;BME280;64673;52.276;10.560;2023-12-20T03:22:51;100227.78;;;4.82;100.00
75991;BME280;64673;52.276;10.560;2023-12-20T03:25:16;100228.38;;;4.84;100.00
75991;BME280;64673;52.276;10.560;2023-12-20T03:27:41;100231.50;;;4.81;100.00
75991;BME280;64673;52.276;10.560;2023-12-20T03:30:07;100234.91;;;4.76;100.00
75991;BME280;64673;52.276;10.560;2023-12-20T03:32:32;100230.84;;;4.74;100.00
75991;BME280;64673;52.276;10.560;2023-12-20T03:34:58;100231.44;;;4.76;100.00
75991;BME280;64673;52.276;10.560;2023-12-20T03:37:23;100225.00;;;4.77;100.00
75991;BME280;64673;52.276;10.560;2023-12-20T03:39:48;100223.44;;;4.76;100.00
75991;BME280;64673;52.276;10.560;2023-12-20T03:42:14;100216.59;;;4.68;100.00
75991;BME280;64673;52.276;10.560;2023-12-20T03:44:39;100203.63;;;4.60;100.00
75991;BME280;64673;52.276;10.560;2023-12-20T03:47:06;100189.44;;;4.60;100.00
75991;BME280;64673;52.276;10.560;2023-12-20T03:49:31;100201.66;;;4.56;100.00
75991;BME280;64673;52.276;10.560;2023-12-20T03:51:56;100196.81;;;4.53;100.00
75991;BME280;64673;52.276;10.560;2023-12-20T03:54:21;100189.25;;;4.50;100.00
75991;BME280;64673;52.276;10.560;2023-12-20T03:56:47;100193.22;;;4.47;100.00
75991;BME280;64673;52.276;10.560;2023-12-20T03:59:12;100187.06;;;4.47;100.00
75991;BME280;64673;52.276;10.560;2023-12-20T04:01:37;100189.50;;;4.48;100.00
75991;BME280;64673;52.276;10.560;2023-12-20T04:04:03;100185.25;;;4.35;100.00
75991;BME280;64673;52.276;10.560;2023-12-20T04:06:28;100196.94;;;4.46;100.00
75991;BME280;64673;52.276;10.560;2023-12-20T04:08:54;100191.59;;;4.46;100.00
75991;BME280;64673;52.276;10.560;2023-12-20T04:11:19;100206.13;;;4.38;100.00
75991;BME280;64673;52.276;10.560;2023-12-20T04:13:44;100206.59;;;4.35;100.00
75991;BME280;64673;52.276;10.560;2023-12-20T04:16:10;100190.13;;;4.38;100.00
75991;BME280;64673;52.276;10.560;2023-12-20T04:18:35;100182.03;;;4.33;100.00
75991;BME280;64673;52.276;10.560;2023-12-20T04:21:01;100190.59;;;4.35;100.00
75991;BME280;64673;52.276;10.560;2023-12-20T04:23:26;100184.78;;;4.38;100.00
75991;BME280;64673;52.276;10.560;2023-12-20T04:25:52;100173.75;;;4.35;100.00
75991;BME280;64673;52.276;10.560;2023-12-20T04:28:18;100176.69;;;4.33;100.00
75991;BME280;64673;52.276;10.560;2023-12-20T04:30:43;100170.53;;;4.33;100.00
75991;BME280;64673;52.276;10.560;2023-12-20T04:33:08;100158.53;;;4.35;100.00
75991;BME280;64673;52.276;10.560;2023-12-20T04:35:34;100188.03;;;4.40;100.00
75991;BME280;64673;52.276;10.560;2023-12-20T04:37:59;100180.59;;;4.43;100.00
75991;BME280;64673;52.276;10.560;2023-12-20T04:40:25;100186.16;;;4.41;100.00
75991;BME280;64673;52.276;10.560;2023-12-20T04:42:50;100188.84;;;4.41;100.00
75991;BME280;64673;52.276;10.560;2023-12-20T04:45:15;100182.06;;;4.50;100.00
75991;BME280;64673;52.276;10.560;2023-12-20T04:47:42;100181.41;;;4.43;100.00
75991;BME280;64673;52.276;10.560;2023-12-20T04:50:08;100183.22;;;4.54;100.00
75991;BME280;64673;52.276;10.560;2023-12-20T04:52:33;100173.41;;;4.43;100.00
75991;BME280;64673;52.276;10.560;2023-12-20T04:54:59;100189.09;;;4.56;100.00
75991;BME280;64673;52.276;10.560;2023-12-20T04:57:24;100183.06;;;4.61;100.00
75991;BME280;64673;52.276;10.560;2023-12-20T04:59:50;100180.97;;;4.63;100.00
75991;BME280;64673;52.276;10.560;2023-12-20T05:02:15;100180.34;;;4.72;100.00
75991;BME280;64673;52.276;10.560;2023-12-20T05:04:40;100166.16;;;4.72;100.00
75991;BME280;64673;52.276;10.560;2023-12-20T05:07:06;100151.66;;;4.68;100.00
75991;BME280;64673;52.276;10.560;2023-12-20T05:09:32;100175.88;;;4.78;100.00
75991;BME280;64673;52.276;10.560;2023-12-20T05:11:57;100165.69;;;4.75;100.00
75991;BME280;64673;52.276;10.560;2023-12-20T05:14:22;100166.25;;;4.77;100.00
75991;BME280;64673;52.276;10.560;2023-12-20T05:16:48;100171.59;;;4.77;100.00
75991;BME280;64673;52.276;10.560;2023-12-20T05:19:13;100161.25;;;4.81;100.00
75991;BME280;64673;52.276;10.560;2023-12-20T05:21:39;100178.72;;;4.88;100.00
75991;BME280;64673;52.276;10.560;2023-12-20T05:24:04;100171.63;;;4.94;100.00
75991;BME280;64673;52.276;10.560;2023-12-20T05:26:30;100154.78;;;4.93;100.00
75991;BME280;64673;52.276;10.560;2023-12-20T05:28:56;100174.06;;;4.95;100.00
75991;BME280;64673;52.276;10.560;2023-12-20T05:31:21;100168.41;;;5.08;100.00
75991;BME280;64673;52.276;10.560;2023-12-20T05:33:46;100156.97;;;4.96;100.00
75991;BME280;64673;52.276;10.560;2023-12-20T05:36:12;100174.28;;;5.10;100.00
75991;BME280;64673;52.276;10.560;2023-12-20T05:38:39;100165.22;;;5.11;100.00
75991;BME280;64673;52.276;10.560;2023-12-20T05:41:04;100171.94;;;5.14;99.30
75991;BME280;64673;52.276;10.560;2023-12-20T05:43:30;100166.94;;;5.18;100.00
75991;BME280;64673;52.276;10.560;2023-12-20T05:45:55;100162.06;;;5.14;100.00
75991;BME280;64673;52.276;10.560;2023-12-20T05:48:20;100157.34;;;5.22;100.00
75991;BME280;64673;52.276;10.560;2023-12-20T05:50:45;100141.50;;;5.15;99.11
75991;BME280;64673;52.276;10.560;2023-12-20T05:53:11;100161.09;;;5.21;99.87
75991;BME280;64673;52.276;10.560;2023-12-20T05:55:36;100159.22;;;5.21;100.00
75991;BME280;64673;52.276;10.560;2023-12-20T05:58:02;100146.66;;;5.22;99.92
75991;BME280;64673;52.276;10.560;2023-12-20T06:00:28;100150.25;;;5.27;100.00
75991;BME280;64673;52.276;10.560;2023-12-20T06:02:53;100139.78;;;5.26;100.00
75991;BME280;64673;52.276;10.560;2023-12-20T06:05:18;100144.38;;;5.30;100.00
75991;BME280;64673;52.276;10.560;2023-12-20T06:07:45;100128.03;;;5.27;99.69
75991;BME280;64673;52.276;10.560;2023-12-20T06:10:12;100146.81;;;5.32;100.00
75991;BME280;64673;52.276;10.560;2023-12-20T06:12:39;100138.88;;;5.37;99.38
75991;BME280;64673;52.276;10.560;2023-12-20T06:15:04;100162.94;;;5.37;99.15
75991;BME280;64673;52.276;10.560;2023-12-20T06:17:31;100145.84;;;5.38;100.00
75991;BME280;64673;52.276;10.560;2023-12-20T06:19:56;100145.19;;;5.31;100.00
75991;BME280;64673;52.276;10.560;2023-12-20T06:22:21;100161.81;;;5.33;100.00
75991;BME280;64673;52.276;10.560;2023-12-20T06:24:47;100158.09;;;5.34;100.00
75991;BME280;64673;52.276;10.560;2023-12-20T06:27:12;100155.16;;;5.35;100.00
75991;BME280;64673;52.276;10.560;2023-12-20T06:29:38;100161.09;;;5.37;100.00
75991;BME280;64673;52.276;10.560;2023-12-20T06:32:04;100169.09;;;5.37;99.60
75991;BME280;64673;52.276;10.560;2023-12-20T06:34:29;100159.28;;;5.43;100.00
75991;BME280;64673;52.276;10.560;2023-12-20T06:36:54;100154.44;;;5.40;100.00
75991;BME280;64673;52.276;10.560;2023-12-20T06:39:20;100152.31;;;5.42;100.00
75991;BME280;64673;52.276;10.560;2023-12-20T06:41:45;100153.47;;;5.46;100.00
75991;BME280;64673;52.276;10.560;2023-12-20T06:44:10;100154.44;;;5.40;100.00
75991;BME280;64673;52.276;10.560;2023-12-20T06:46:36;100158.81;;;5.46;100.00
75991;BME280;64673;52.276;10.560;2023-12-20T06:49:01;100159.78;;;5.40;100.00
75991;BME280;64673;52.276;10.560;2023-12-20T06:51:27;100149.88;;;5.40;100.00
75991;BME280;64673;52.276;10.560;2023-12-20T06:53:53;100152.31;;;5.42;100.00
75991;BME280;64673;52.276;10.560;2023-12-20T06:56:18;100159.28;;;5.43;100.00
75991;BME280;64673;52.276;10.560;2023-12-20T06:58:44;100159.78;;;5.40;100.00
75991;BME280;64673;52.276;10.560;2023-12-20T07:01:13;100146.66;;;5.38;100.00
75991;BME280;64673;52.276;10.560;2023-12-20T07:03:38;100145.84;;;5.38;100.00
75991;BME280;64673;52.276;10.560;2023-12-20T07:06:05;100152.31;;;5.42;100.00
75991;BME280;64673;52.276;10.560;2023-12-20T07:08:30;100133.06;;;5.40;100.00
75991;BME280;64673;52.276;10.560;2023-12-20T07:10:55;100144.63;;;5.45;99.99
75991;BME280;64673;52.276;10.560;2023-12-20T07:13:20;100146.16;;;5.41;99.10
75991;BME280;64673;52.276;10.560;2023-12-20T07:15:47;100143.56;;;5.46;100.00
75991;BME280;64673;52.276;10.560;2023-12-20T07:18:12;100135.31;;;5.48;100.00
75991;BME280;64673;52.276;10.560;2023-12-20T07:20:38;100148.34;;;5.44;100.00
75991;BME280;64673;52.276;10.560;2023-12-20T07:23:03;100125.56;;;5.42;100.00
75991;BME280;64673;52.276;10.560;2023-12-20T07:25:28;100130.69;;;5.43;99.99
75991;BME280;64673;52.276;10.560;2023-12-20T07:27:55;100133.13;;;5.45;100.00
75991;BME280;64673;52.276;10.560;2023-12-20T07:30:20;100141.13;;;5.45;100.00
75991;BME280;64673;52.276;10.560;2023-12-20T07:32:46;100137.97;;;5.48;100.00
75991;BME280;64673;52.276;10.560;2023-12-20T07:35:12;100156.69;;;5.48;100.00
75991;BME280;64673;52.276;10.560;2023-12-20T07:37:37;100154.50;;;5.45;100.00
75991;BME280;64673;52.276;10.560;2023-12-20T07:40:03;100159.38;;;5.48;100.00
75991;BME280;64673;52.276;10.560;2023-12-20T07:42:28;100156.69;;;5.48;99.66
75991;BME280;64673;52.276;10.560;2023-12-20T07:44:54;100151.66;;;5.51;99.94
75991;BME280;64673;52.276;10.560;2023-12-20T07:47:20;100153.69;;;5.44;100.00
75991;BME280;64673;52.276;10.560;2023-12-20T07:49:48;100167.06;;;5.44;99.14
75991;BME280;64673;52.276;10.560;2023-12-20T07:52:13;100156.56;;;5.38;99.33
75991;BME280;64673;52.276;10.560;2023-12-20T07:54:39;100166.69;;;5.36;99.90
75991;BME280;64673;52.276;10.560;2023-12-20T07:57:05;100158.19;;;5.39;99.89
75991;BME280;64673;52.276;10.560;2023-12-20T07:59:30;100152.97;;;5.32;99.44
75991;BME280;64673;52.276;10.560;2023-12-20T08:01:55;100131.53;;;5.27;100.00
75991;BME280;64673;52.276;10.560;2023-12-20T08:04:21;100145.56;;;5.18;100.00
75991;BME280;64673;52.276;10.560;2023-12-20T08:06:46;100152.59;;;5.24;100.00
75991;BME280;64673;52.276;10.560;2023-12-20T08:09:12;100142.94;;;5.23;100.00
75991;BME280;64673;52.276;10.560;2023-12-20T08:11:37;100146.00;;;5.31;100.00
75991;BME280;64673;52.276;10.560;2023-12-20T08:14:02;100155.66;;;5.32;99.77
75991;BME280;64673;52.276;10.560;2023-12-20T08:16:27;100135.41;;;5.36;99.39
75991;BME280;64673;52.276;10.560;2023-12-20T08:18:53;100143.09;;;5.49;98.50
75991;BME280;64673;52.276;10.560;2023-12-20T08:21:18;100147.63;;;5.49;98.49
75991;BME280;64673;52.276;10.560;2023-12-20T08:23:46;100135.13;;;5.55;98.36
75991;BME280;64673;52.276;10.560;2023-12-20T08:26:12;100142.91;;;5.56;98.29
75991;BME280;64673;52.276;10.560;2023-12-20T08:28:38;100144.84;;;5.61;97.79
75991;BME280;64673;52.276;10.560;2023-12-20T08:31:03;100161.06;;;5.54;98.54
75991;BME280;64673;52.276;10.560;2023-12-20T08:33:28;100151.50;;;5.58;97.70
75991;BME280;64673;52.276;10.560;2023-12-20T08:35:54;100168.34;;;5.59;97.34
75991;BME280;64673;52.276;10.560;2023-12-20T08:38:19;100166.41;;;5.54;98.03
75991;BME280;64673;52.276;10.560;2023-12-20T08:40:44;100162.34;;;5.51;98.91
75991;BME280;64673;52.276;10.560;2023-12-20T08:43:10;100151.50;;;5.58;97.98
75991;BME280;64673;52.276;10.560;2023-12-20T08:45:35;100150.34;;;5.54;98.14
75991;BME280;64673;52.276;10.560;2023-12-20T08:48:01;100128.81;;;5.44;99.07
75991;BME280;64673;52.276;10.560;2023-12-20T08:50:26;100120.38;;;5.52;98.75
75991;BME280;64673;52.276;10.560;2023-12-20T08:52:52;100145.19;;;5.47;100.00
75991;BME280;64673;52.276;10.560;2023-12-20T08:55:18;100125.19;;;5.50;100.00
75991;BME280;64673;52.276;10.560;2023-12-20T08:57:44;100118.75;;;5.51;100.00
75991;BME280;64673;52.276;10.560;2023-12-20T09:00:10;100107.06;;;5.57;100.00
75991;BME280;64673;52.276;10.560;2023-12-20T09:02:35;100101.91;;;5.50;100.00
75991;BME280;64673;52.276;10.560;2023-12-20T09:05:01;100115.00;;;5.52;100.00
75991;BME280;64673;52.276;10.560;2023-12-20T09:07:27;100107.56;;;5.54;100.00
75991;BME280;64673;52.276;10.560;2023-12-20T09:09:55;100105.53;;;5.61;100.00
75991;BME280;64673;52.276;10.560;2023-12-20T09:12:21;100104.44;;;5.62;99.97
75991;BME280;64673;52.276;10.560;2023-12-20T09:14:47;100103.97;;;5.65;98.90
75991;BME280;64673;52.276;10.560;2023-12-20T09:17:13;100091.75;;;5.74;98.08
75991;BME280;64673;52.276;10.560;2023-12-20T09:19:38;100085.31;;;5.70;98.25
75991;BME280;64673;52.276;10.560;2023-12-20T09:22:06;100089.16;;;5.79;98.14
75991;BME280;64673;52.276;10.560;2023-12-20T09:24:31;100105.03;;;5.86;97.20
75991;BME280;64673;52.276;10.560;2023-12-20T09:26:57;100100.03;;;5.90;96.92
75991;BME280;64673;52.276;10.560;2023-12-20T09:29:22;100096.28;;;5.91;96.93
75991;BME280;64673;52.276;10.560;2023-12-20T09:31:48;100093.09;;;5.94;96.94
75991;BME280;64673;52.276;10.560;2023-12-20T09:34:15;100077.81;;;5.89;96.75
75991;BME280;64673;52.276;10.560;2023-12-20T09:36:42;100079.53;;;6.00;96.49
75991;BME280;64673;52.276;10.560;2023-12-20T09:39:13;100074.22;;;6.05;96.09
75991;BME280;64673;52.276;10.560;2023-12-20T09:41:43;100085.81;;;6.11;96.60
75991;BME280;64673;52.276;10.560;2023-12-20T09:44:14;100060.56;;;6.02;95.98
75991;BME280;64673;52.276;10.560;2023-12-20T09:46:43;100057.41;;;6.10;95.04
75991;BME280;64673;52.276;10.560;2023-12-20T09:49:08;100059.28;;;6.09;95.58
75991;BME280;64673;52.276;10.560;2023-12-20T09:51:34;100067.56;;;6.08;94.72
75991;BME280;64673;52.276;10.560;2023-12-20T09:54:04;100059.84;;;6.11;95.97
75991;BME280;64673;52.276;10.560;2023-12-20T09:56:30;100062.97;;;6.03;95.03
75991;BME280;64673;52.276;10.560;2023-12-20T09:58:56;100052.44;;;5.97;95.35
75991;BME280;64673;52.276;10.560;2023-12-20T10:01:22;100054.13;;;6.03;94.88
75991;BME280;64673;52.276;10.560;2023-12-20T10:03:50;100050.34;;;5.99;95.18
75991;BME280;64673;52.276;10.560;2023-12-20T10:06:16;100033.88;;;6.12;95.04
75991;BME280;64673;52.276;10.560;2023-12-20T10:08:41;100046.94;;;6.08;94.55
75991;BME280;64673;52.276;10.560;2023-12-20T10:11:07;100037.13;;;6.14;94.82
75991;BME280;64673;52.276;10.560;2023-12-20T10:13:32;100041.44;;;6.20;93.98
75991;BME280;64673;52.276;10.560;2023-12-20T10:15:57;100030.75;;;6.20;94.09
75991;BME280;64673;52.276;10.560;2023-12-20T10:18:23;100028.63;;;6.22;92.61
75991;BME280;64673;52.276;10.560;2023-12-20T10:20:48;100022.25;;;6.28;92.93
75991;BME280;64673;52.276;10.560;2023-12-20T10:23:15;100016.59;;;6.24;93.37
75991;BME280;64673;52.276;10.560;2023-12-20T10:25:41;100027.13;;;6.36;92.72
75991;BME280;64673;52.276;10.560;2023-12-20T10:28:15;100006.16;;;6.28;91.78
75991;BME280;64673;52.276;10.560;2023-12-20T10:30:46;100013.22;;;6.39;91.43
75991;BME280;64673;52.276;10.560;2023-12-20T10:33:11;99995.59;;;6.43;91.98
75991;BME280;64673;52.276;10.560;2023-12-20T10:35:38;99996.06;;;6.35;91.27
75991;BME280;64673;52.276;10.560;2023-12-20T10:38:05;99984.72;;;6.55;91.74
75991;BME280;64673;52.276;10.560;2023-12-20T10:40:31;99987.13;;;6.56;91.41
75991;BME280;64673;52.276;10.560;2023-12-20T10:42:59;99957.66;;;6.56;91.80
75991;BME280;64673;52.276;10.560;2023-12-20T10:45:26;99973.13;;;6.49;90.76
75991;BME280;64673;52.276;10.560;2023-12-20T10:47:52;99983.91;;;6.54;90.86
75991;BME280;64673;52.276;10.560;2023-12-20T10:50:19;99973.69;;;6.51;91.47
75991;BME280;64673;52.276;10.560;2023-12-20T10:52:46;99980.69;;;6.57;91.01
75991;BME280;64673;52.276;10.560;2023-12-20T10:55:12;99963.28;;;6.55;91.07
75991;BME280;64673;52.276;10.560;2023-12-20T10:57:38;99954.69;;;6.53;91.13
75991;BME280;64673;52.276;10.560;2023-12-20T11:00:06;99961.94;;;6.57;91.44
75991;BME280;64673;52.276;10.560;2023-12-20T11:02:37;99968.34;;;6.51;91.82
75991;BME280;64673;52.276;10.560;2023-12-20T11:07:47;99962.16;;;6.46;90.87
75991;BME280;64673;52.276;10.560;2023-12-20T11:10:20;99946.91;;;6.51;92.13
75991;BME280;64673;52.276;10.560;2023-12-20T11:13:10;99950.41;;;6.57;91.10
75991;BME280;64673;52.276;10.560;2023-12-20T11:15:37;99952.31;;;6.56;92.04
75991;BME280;64673;52.276;10.560;2023-12-20T11:18:03;99947.41;;;6.48;93.13
75991;BME280;64673;52.276;10.560;2023-12-20T11:20:39;99934.00;;;6.43;93.63
75991;BME280;64673;52.276;10.560;2023-12-20T11:23:06;99925.41;;;6.41;94.30
75991;BME280;64673;52.276;10.560;2023-12-20T11:25:48;99922.75;;;6.46;93.90
75991;BME280;64673;52.276;10.560;2023-12-20T11:28:20;99926.47;;;6.40;93.05
75991;BME280;64673;52.276;10.560;2023-12-20T11:30:54;99919.00;;;6.47;94.81
75991;BME280;64673;52.276;10.560;2023-12-20T11:33:25;99930.25;;;6.44;94.42
75991;BME280;64673;52.276;10.560;2023-12-20T11:35:51;99925.91;;;6.38;94.72
75991;BME280;64673;52.276;10.560;2023-12-20T11:38:20;99927.81;;;6.43;95.94
75991;BME280;64673;52.276;10.560;2023-12-20T11:40:48;99924.91;;;6.44;94.60
75991;BME280;64673;52.276;10.560;2023-12-20T11:43:30;99912.84;;;6.47;94.95
75991;BME280;64673;52.276;10.560;2023-12-20T11:46:02;99961.34;;;6.45;94.22
75991;BME280;64673;52.276;10.560;2023-12-20T11:48:30;99926.50;;;6.45;95.76
75991;BME280;64673;52.276;10.560;2023-12-20T11:50:56;99930.19;;;6.39;96.30
75991;BME280;64673;52.276;10.560;2023-12-20T11:53:22;99920.56;;;6.38;97.05
75991;BME280;64673;52.276;10.560;2023-12-20T11:55:51;99912.50;;;6.33;97.69
75991;BME280;64673;52.276;10.560;2023-12-20T11:58:16;99905.00;;;6.35;97.85
75991;BME280;64673;52.276;10.560;2023-12-20T12:00:44;99909.78;;;6.28;99.06
75991;BME280;64673;52.276;10.560;2023-12-20T12:03:10;99902.78;;;6.22;100.00
75991;BME280;64673;52.276;10.560;2023-12-20T12:05:35;99890.31;;;6.06;100.00
75991;BME280;64673;52.276;10.560;2023-12-20T12:08:02;99889.88;;;6.14;100.00
75991;BME280;64673;52.276;10.560;2023-12-20T12:10:28;99900.75;;;6.02;100.00
75991;BME280;64673;52.276;10.560;2023-12-20T12:12:53;99911.66;;;5.96;100.00
75991;BME280;64673;52.276;10.560;2023-12-20T12:15:19;99902.06;;;6.00;100.00
75991;BME280;64673;52.276;10.560;2023-12-20T12:17:52;99919.66;;;5.91;100.00
75991;BME280;64673;52.276;10.560;2023-12-20T12:20:20;99927.50;;;5.75;100.00
75991;BME280;64673;52.276;10.560;2023-12-20T12:22:45;99955.78;;;5.66;100.00
75991;BME280;64673;52.276;10.560;2023-12-20T12:25:12;99915.28;;;5.58;100.00
75991;BME280;64673;52.276;10.560;2023-12-20T12:27:41;99932.19;;;5.63;100.00
75991;BME280;64673;52.276;10.560;2023-12-20T12:30:08;99941.78;;;5.59;100.00
75991;BME280;64673;52.276;10.560;2023-12-20T12:32:34;99902.00;;;5.41;100.00
75991;BME280;64673;52.276;10.560;2023-12-20T12:35:00;99917.72;;;5.59;100.00
75991;BME280;64673;52.276;10.560;2023-12-20T12:37:28;99915.28;;;5.58;100.00
75991;BME280;64673;52.276;10.560;2023-12-20T12:39:53;99906.47;;;5.57;100.00
75991;BME280;64673;52.276;10.560;2023-12-20T12:42:20;99920.16;;;5.61;100.00